Terminal Aerodrome Forecast
Issued by NWS Twin Cities, MN

Home | Current Version | Previous Version | Text Only | Print | Product List | Glossary On
Versions: 1 2 3 4 5 6 7 8 9 10 11 12 13 14 15 16 17 18 19 20 21 22 23 24 25 26 27 28 29 30 31 32
000
FTUS43 KMPX 301128
TAFMSP
TAF
KMSP 301128Z 3012/0118 01004KT P6SM FEW002
      TEMPO 3012/3014 2SM BR BKN002
     FM301400 05007KT P6SM SKC
     FM302200 06009KT P6SM SCT030 OVC050=

USA.gov is the U.S. government's official web portal to all federal, state and local government web resources and services.